createdAt,value
2023-05-24T00:00:13.922Z,16.33
2023-05-24T00:01:16.752Z,16.32
2023-05-24T00:02:20.178Z,16.33
2023-05-24T00:03:22.110Z,16.32
2023-05-24T00:04:25.825Z,16.33
2023-05-24T00:05:31.227Z,16.32
2023-05-24T00:06:37.162Z,16.32
2023-05-24T00:07:39.276Z,16.34
2023-05-24T00:08:42.304Z,16.34
2023-05-24T00:09:44.537Z,16.34
2023-05-24T00:10:48.403Z,16.34
2023-05-24T00:11:50.496Z,16.34
2023-05-24T00:12:53.849Z,16.33
2023-05-24T00:13:58.944Z,16.29
2023-05-24T00:15:01.720Z,16.29
2023-05-24T00:16:03.756Z,16.29
2023-05-24T00:17:06.846Z,16.30
2023-05-24T00:18:11.929Z,16.29
2023-05-24T00:19:18.697Z,16.28
2023-05-24T00:20:21.275Z,16.28
2023-05-24T00:21:24.247Z,16.29
2023-05-24T00:22:26.228Z,16.29
2023-05-24T00:23:29.168Z,16.29
2023-05-24T00:24:31.130Z,16.30
2023-05-24T00:25:33.908Z,16.29
2023-05-24T00:26:35.746Z,16.30
2023-05-24T00:27:38.609Z,16.32
2023-05-24T00:28:41.605Z,16.31
2023-05-24T00:29:46.290Z,16.33
2023-05-24T00:30:48.145Z,16.34
2023-05-24T00:31:51.013Z,16.33
2023-05-24T00:32:53.018Z,16.31
2023-05-24T00:33:55.958Z,16.31
2023-05-24T00:34:57.816Z,16.31
2023-05-24T00:36:00.628Z,16.30
2023-05-24T00:37:02.550Z,16.31
2023-05-24T00:38:08.346Z,16.31
2023-05-24T00:39:14.000Z,16.31
2023-05-24T00:40:18.964Z,16.32
2023-05-24T00:41:21.169Z,16.32
2023-05-24T00:42:24.400Z,16.30
2023-05-24T00:43:26.251Z,16.29
2023-05-24T00:44:29.686Z,16.27
2023-05-24T00:45:33.856Z,16.26
2023-05-24T00:46:37.878Z,16.24
2023-05-24T00:47:42.032Z,16.22
2023-05-24T00:48:46.956Z,16.20
2023-05-24T00:49:51.042Z,16.16
2023-05-24T00:50:53.540Z,16.15
2023-05-24T00:51:57.576Z,16.11
2023-05-24T00:53:01.211Z,16.10
2023-05-24T00:54:04.202Z,16.08
2023-05-24T00:55:07.827Z,16.05
2023-05-24T00:56:11.017Z,16.02
2023-05-24T00:57:14.756Z,15.98
2023-05-24T00:58:18.621Z,15.96
2023-05-24T00:59:20.507Z,15.93
2023-05-24T01:00:23.993Z,15.91
2023-05-24T01:01:31.163Z,15.91
2023-05-24T01:02:34.342Z,15.89
2023-05-24T01:03:36.426Z,15.89
2023-05-24T01:04:40.426Z,15.90
2023-05-24T01:05:42.301Z,15.88
2023-05-24T01:07:02.799Z,15.87
2023-05-24T01:08:13.192Z,15.86
2023-05-24T01:09:24.171Z,15.85
2023-05-24T01:10:33.579Z,15.87
2023-05-24T01:11:51.342Z,15.86
2023-05-24T01:13:01.430Z,15.84
2023-05-24T01:14:14.351Z,15.82
2023-05-24T01:15:24.918Z,15.79
2023-05-24T01:16:32.997Z,15.77
2023-05-24T01:17:42.747Z,15.77
2023-05-24T01:18:47.763Z,15.75
2023-05-24T01:19:54.119Z,15.72
2023-05-24T01:21:04.548Z,15.70
2023-05-24T01:22:18.020Z,15.67
2023-05-24T01:23:34.532Z,15.65
2023-05-24T01:24:48.915Z,15.60
2023-05-24T01:26:05.050Z,15.58
2023-05-24T01:27:13.809Z,15.56
2023-05-24T01:28:35.594Z,15.51
2023-05-24T01:29:56.889Z,15.51
2023-05-24T01:31:21.332Z,15.44
2023-05-24T01:32:43.480Z,15.41
2023-05-24T01:34:05.463Z,15.40
2023-05-24T01:35:26.164Z,15.36
2023-05-24T01:36:48.960Z,15.33
2023-05-24T01:38:10.935Z,15.29
2023-05-24T01:39:35.049Z,15.25
2023-05-24T01:41:00.354Z,15.22
2023-05-24T01:42:28.773Z,15.18
2023-05-24T01:43:43.814Z,15.14
2023-05-24T01:44:52.785Z,15.11
2023-05-24T01:46:01.037Z,15.09
2023-05-24T01:47:09.252Z,15.07
2023-05-24T01:48:19.488Z,15.07
2023-05-24T01:49:27.382Z,15.02
2023-05-24T01:50:34.776Z,14.99
2023-05-24T01:51:41.780Z,14.96
2023-05-24T01:52:46.815Z,14.92
2023-05-24T01:53:50.852Z,14.89
2023-05-24T01:54:53.998Z,14.89
2023-05-24T01:56:00.527Z,14.88
2023-05-24T01:57:05.687Z,14.89
2023-05-24T01:58:11.910Z,14.89
2023-05-24T01:59:15.170Z,14.88
2023-05-24T02:00:20.019Z,14.87
2023-05-24T02:01:22.157Z,14.84
2023-05-24T02:02:25.724Z,14.84
2023-05-24T02:03:28.403Z,14.82
2023-05-24T02:04:34.155Z,14.81
2023-05-24T02:05:35.961Z,14.77
2023-05-24T02:06:44.910Z,14.78
2023-05-24T02:07:49.061Z,14.76
2023-05-24T02:08:53.523Z,14.74
2023-05-24T02:09:56.643Z,14.71
2023-05-24T02:10:59.464Z,14.70
2023-05-24T02:12:05.667Z,14.68
2023-05-24T02:13:10.622Z,14.63
2023-05-24T02:14:13.428Z,14.61
2023-05-24T02:15:16.477Z,14.58
2023-05-24T02:16:18.408Z,14.56
2023-05-24T02:17:22.583Z,14.53
2023-05-24T02:18:24.597Z,14.53
2023-05-24T02:19:27.409Z,14.55
2023-05-24T02:20:31.160Z,14.54
2023-05-24T02:21:35.841Z,14.55
2023-05-24T02:22:38.690Z,14.55
2023-05-24T02:23:41.674Z,14.55
2023-05-24T02:24:43.530Z,14.56
2023-05-24T02:25:48.687Z,14.57
2023-05-24T02:26:50.568Z,14.58
2023-05-24T02:29:47.655Z,14.61
2023-05-24T02:30:49.797Z,14.66
2023-05-24T02:31:56.400Z,14.68
2023-05-24T02:33:00.734Z,14.73
2023-05-24T02:34:03.738Z,14.76
2023-05-24T02:35:06.052Z,14.79
2023-05-24T02:36:09.008Z,14.81
2023-05-24T02:37:14.800Z,14.84
2023-05-24T02:38:17.627Z,14.84
2023-05-24T02:39:20.948Z,14.88
2023-05-24T02:40:26.369Z,14.87
2023-05-24T02:41:28.208Z,14.89
2023-05-24T02:42:31.370Z,14.92
2023-05-24T02:43:33.690Z,14.93
2023-05-24T02:44:36.508Z,14.96
2023-05-24T02:45:39.692Z,14.96
2023-05-24T02:46:42.558Z,14.97
2023-05-24T02:48:03.022Z,14.98
2023-05-24T02:49:25.852Z,14.97
2023-05-24T02:50:50.319Z,14.96
2023-05-24T02:52:10.899Z,14.98
2023-05-24T02:53:32.547Z,15.00
2023-05-24T02:54:54.068Z,14.98
2023-05-24T02:56:17.208Z,14.97
2023-05-24T02:57:38.965Z,14.97
2023-05-24T02:58:59.350Z,14.97
2023-05-24T03:00:21.300Z,14.98
2023-05-24T03:01:43.316Z,15.00
2023-05-24T03:03:04.865Z,15.01
2023-05-24T03:04:27.050Z,15.03
2023-05-24T03:05:48.937Z,15.03
2023-05-24T03:07:10.745Z,15.02
2023-05-24T03:08:31.675Z,15.02
2023-05-24T03:09:57.474Z,15.02
2023-05-24T03:11:21.904Z,15.01
2023-05-24T03:12:43.338Z,15.00
2023-05-24T03:14:06.333Z,14.98
2023-05-24T03:15:27.070Z,15.00
2023-05-24T03:16:50.116Z,14.98
2023-05-24T03:18:11.874Z,14.99
2023-05-24T03:19:35.220Z,15.03
2023-05-24T03:20:56.915Z,15.05
2023-05-24T03:22:19.425Z,15.08
2023-05-24T03:23:40.095Z,15.10
2023-05-24T03:25:01.820Z,15.11
2023-05-24T03:26:22.168Z,15.11
2023-05-24T03:27:43.964Z,15.11
2023-05-24T03:29:04.593Z,15.10
2023-05-24T03:30:31.128Z,15.09
2023-05-24T03:31:55.556Z,15.09
2023-05-24T03:33:16.621Z,15.06
2023-05-24T03:34:38.271Z,15.06
2023-05-24T03:35:55.287Z,15.06
2023-05-24T03:36:59.810Z,15.06
2023-05-24T03:38:03.204Z,15.07
2023-05-24T03:39:07.760Z,15.08
2023-05-24T03:40:23.437Z,15.08
2023-05-24T03:41:32.410Z,15.09
2023-05-24T03:42:35.262Z,15.13
2023-05-24T03:43:38.094Z,15.15
2023-05-24T03:44:43.877Z,15.19
2023-05-24T03:45:46.735Z,15.21
2023-05-24T03:46:48.607Z,15.22
2023-05-24T03:47:52.860Z,15.23
2023-05-24T03:48:54.663Z,15.23
2023-05-24T03:49:58.117Z,15.24
2023-05-24T03:50:59.979Z,15.23
2023-05-24T03:52:03.218Z,15.25
2023-05-24T03:53:05.497Z,15.25
2023-05-24T03:54:08.314Z,15.30
2023-05-24T03:55:12.166Z,15.33
2023-05-24T03:56:15.061Z,15.34
2023-05-24T03:57:17.462Z,15.36
2023-05-24T03:58:20.252Z,15.38
2023-05-24T03:59:24.295Z,15.39
2023-05-24T04:00:45.808Z,15.39
2023-05-24T04:02:08.859Z,15.39
2023-05-24T04:03:34.184Z,15.39
2023-05-24T04:04:55.842Z,15.38
2023-05-24T04:06:17.668Z,15.37
2023-05-24T04:07:20.590Z,15.38
2023-05-24T04:08:22.453Z,15.38
2023-05-24T04:09:25.522Z,15.40
2023-05-24T04:10:27.675Z,15.42
2023-05-24T04:11:30.469Z,15.44
2023-05-24T04:12:32.488Z,15.46
2023-05-24T04:13:35.299Z,15.45
2023-05-24T04:14:37.178Z,15.46
2023-05-24T04:15:40.035Z,15.47
2023-05-24T04:16:42.092Z,15.48
2023-05-24T04:17:45.759Z,15.50
2023-05-24T04:18:49.204Z,15.54
2023-05-24T04:19:53.260Z,15.56
2023-05-24T04:20:56.063Z,15.56
2023-05-24T04:21:57.949Z,15.59
2023-05-24T04:23:00.868Z,15.60
2023-05-24T04:24:03.424Z,15.61
2023-05-24T04:25:07.620Z,15.62
2023-05-24T04:26:12.356Z,15.63
2023-05-24T04:27:15.227Z,15.64
2023-05-24T04:28:18.052Z,15.67
2023-05-24T04:29:20.435Z,15.68
2023-05-24T04:30:23.437Z,15.69
2023-05-24T04:31:26.301Z,15.68
2023-05-24T04:32:30.371Z,15.68
2023-05-24T04:33:32.589Z,15.69
2023-05-24T04:34:37.569Z,15.70
2023-05-24T04:35:40.734Z,15.73
2023-05-24T04:36:43.494Z,15.74
2023-05-24T04:37:48.325Z,15.75
2023-05-24T04:38:53.680Z,15.77
2023-05-24T04:39:55.865Z,15.78
2023-05-24T04:40:58.847Z,15.78
2023-05-24T04:42:00.708Z,15.78
2023-05-24T04:43:03.533Z,15.78
2023-05-24T04:44:05.589Z,15.80
2023-05-24T04:45:09.488Z,15.84
2023-05-24T04:46:11.319Z,15.84
2023-05-24T04:47:15.133Z,15.86
2023-05-24T04:48:17.606Z,15.88
2023-05-24T04:49:20.544Z,15.89
2023-05-24T04:50:24.131Z,15.88
2023-05-24T04:51:26.922Z,15.88
2023-05-24T04:52:28.756Z,15.88
2023-05-24T04:53:32.844Z,15.89
2023-05-24T04:54:34.736Z,15.86
2023-05-24T04:55:37.523Z,15.87
2023-05-24T04:56:39.349Z,15.89
2023-05-24T04:57:42.108Z,15.93
2023-05-24T04:58:43.917Z,15.95
2023-05-24T04:59:46.790Z,15.95
2023-05-24T05:01:07.415Z,15.95
2023-05-24T05:02:10.314Z,15.96
2023-05-24T05:03:13.760Z,15.94
2023-05-24T05:04:16.666Z,15.92
2023-05-24T05:05:18.632Z,15.91
2023-05-24T05:06:23.190Z,15.91
2023-05-24T05:07:24.991Z,15.91
2023-05-24T05:08:27.862Z,15.92
2023-05-24T05:09:29.700Z,15.94
2023-05-24T05:10:32.504Z,15.95
2023-05-24T05:11:34.321Z,15.93
2023-05-24T05:12:39.730Z,15.94
2023-05-24T05:13:41.538Z,15.93
2023-05-24T05:14:44.311Z,15.95
2023-05-24T05:15:46.291Z,15.97
2023-05-24T05:16:49.187Z,15.96
2023-05-24T05:17:51.299Z,15.95
2023-05-24T05:19:13.075Z,15.96
2023-05-24T05:20:15.911Z,15.96
2023-05-24T05:21:18.488Z,15.98
2023-05-24T05:22:22.706Z,15.98
2023-05-24T05:23:24.555Z,15.96
2023-05-24T05:24:28.775Z,15.93
2023-05-24T05:25:31.050Z,15.91
2023-05-24T05:26:34.518Z,15.89
2023-05-24T05:27:36.321Z,15.88
2023-05-24T05:28:39.215Z,15.89
2023-05-24T05:29:42.549Z,15.87
2023-05-24T05:30:44.491Z,15.83
2023-05-24T05:31:48.077Z,15.78
2023-05-24T05:32:50.020Z,15.69
2023-05-24T05:33:52.940Z,15.61
2023-05-24T05:34:55.736Z,15.51
2023-05-24T05:36:16.473Z,15.38
2023-05-24T05:37:39.198Z,15.28
2023-05-24T05:39:00.920Z,15.16
2023-05-24T05:40:22.822Z,15.05
2023-05-24T05:41:46.524Z,14.95
2023-05-24T05:42:52.374Z,14.89
2023-05-24T05:43:55.163Z,14.85
2023-05-24T05:44:57.383Z,14.82
2023-05-24T05:46:00.855Z,14.83
2023-05-24T05:47:04.009Z,14.83
2023-05-24T05:48:07.214Z,14.82
2023-05-24T05:49:09.584Z,14.82
2023-05-24T05:50:12.669Z,14.80
2023-05-24T05:51:14.519Z,14.75
2023-05-24T05:52:17.335Z,14.71
2023-05-24T05:53:21.107Z,14.67
2023-05-24T05:54:23.902Z,14.62
2023-05-24T05:55:25.688Z,14.60
2023-05-24T05:56:28.675Z,14.56
2023-05-24T05:57:31.515Z,14.56
2023-05-24T05:58:33.508Z,14.54
2023-05-24T05:59:36.504Z,14.52
2023-05-24T06:00:38.330Z,14.50
2023-05-24T06:01:41.419Z,14.48
2023-05-24T06:03:03.012Z,14.45
2023-05-24T06:04:05.053Z,14.43
2023-05-24T06:05:08.452Z,14.41
2023-05-24T06:06:10.330Z,14.39
2023-05-24T06:07:13.098Z,14.35
2023-05-24T06:08:14.882Z,14.32
2023-05-24T06:09:19.079Z,14.29
2023-05-24T06:10:21.269Z,14.26
2023-05-24T06:11:24.128Z,14.25
2023-05-24T06:12:27.226Z,14.25
2023-05-24T06:13:31.176Z,14.25
2023-05-24T06:14:34.481Z,14.24
2023-05-24T06:15:36.279Z,14.22
2023-05-24T06:16:41.984Z,14.21
2023-05-24T06:17:47.846Z,14.20
2023-05-24T06:19:04.619Z,14.18
2023-05-24T06:20:12.039Z,14.15
2023-05-24T06:21:14.307Z,14.14
2023-05-24T06:22:18.786Z,14.14
2023-05-24T06:23:20.792Z,14.14
2023-05-24T06:24:24.934Z,14.15
2023-05-24T06:25:30.860Z,14.17
2023-05-24T06:26:33.009Z,14.20
2023-05-24T06:27:35.834Z,14.18
2023-05-24T06:28:38.865Z,14.14
2023-05-24T06:29:40.850Z,14.11
2023-05-24T06:30:44.352Z,14.08
2023-05-24T06:31:47.380Z,14.04
2023-05-24T06:32:50.272Z,13.99
2023-05-24T06:34:03.889Z,13.98
2023-05-24T06:35:08.888Z,13.98
2023-05-24T06:36:11.893Z,13.97
2023-05-24T06:37:15.646Z,13.97
2023-05-24T06:38:17.825Z,13.95
2023-05-24T06:39:20.918Z,13.93
2023-05-24T06:40:24.100Z,13.93
2023-05-24T06:41:28.029Z,13.91
2023-05-24T06:42:30.027Z,13.88
2023-05-24T06:43:52.731Z,13.83
2023-05-24T06:45:14.950Z,13.83
2023-05-24T06:46:36.643Z,13.83
2023-05-24T06:47:58.306Z,13.83
2023-05-24T06:49:19.947Z,13.90
2023-05-24T06:50:42.820Z,13.91
2023-05-24T06:51:46.858Z,13.85
2023-05-24T06:52:49.704Z,13.82
2023-05-24T06:53:52.020Z,13.79
2023-05-24T06:54:54.781Z,13.78
2023-05-24T06:55:57.958Z,13.77
2023-05-24T06:57:00.872Z,13.76
2023-05-24T06:58:02.678Z,13.77
2023-05-24T06:59:05.936Z,13.77
2023-05-24T07:00:12.051Z,13.75
2023-05-24T07:01:17.027Z,13.74
2023-05-24T07:02:18.886Z,13.72
2023-05-24T07:03:22.015Z,13.74
2023-05-24T07:04:24.395Z,13.75
2023-05-24T07:05:27.214Z,13.74
2023-05-24T07:06:29.308Z,13.74
2023-05-24T07:07:32.580Z,13.71
2023-05-24T07:08:34.395Z,13.70
2023-05-24T07:09:42.403Z,13.68
2023-05-24T07:10:45.443Z,13.65
2023-05-24T07:11:50.127Z,13.62
2023-05-24T07:12:53.200Z,13.61
2023-05-24T07:13:55.277Z,13.60
2023-05-24T07:14:58.045Z,13.59
2023-05-24T07:16:02.157Z,13.59
2023-05-24T07:17:06.167Z,13.61
2023-05-24T07:18:08.298Z,13.61
2023-05-24T07:19:13.509Z,13.61
2023-05-24T07:20:15.933Z,13.61
2023-05-24T07:21:18.837Z,13.57
2023-05-24T07:22:20.698Z,13.54
2023-05-24T07:23:23.599Z,13.50
2023-05-24T07:24:25.504Z,13.49
2023-05-24T07:25:28.861Z,13.52
2023-05-24T07:26:30.681Z,13.53
2023-05-24T07:27:34.862Z,13.50
2023-05-24T07:28:38.812Z,13.47
2023-05-24T07:29:41.658Z,13.44
2023-05-24T07:30:43.631Z,13.42
2023-05-24T07:31:46.541Z,13.41
2023-05-24T07:32:49.874Z,13.42
2023-05-24T07:33:52.057Z,13.45
2023-05-24T07:34:55.899Z,13.48
2023-05-24T07:35:59.262Z,13.48
2023-05-24T07:37:02.234Z,13.48
2023-05-24T07:38:05.777Z,13.48
2023-05-24T07:39:09.986Z,13.50
2023-05-24T07:40:13.166Z,13.53
2023-05-24T07:41:15.077Z,13.57
2023-05-24T07:42:17.985Z,13.62
2023-05-24T07:43:21.127Z,13.67
2023-05-24T07:44:26.263Z,13.74
2023-05-24T07:45:28.104Z,13.81
2023-05-24T07:46:30.927Z,13.88
2023-05-24T07:47:33.925Z,13.97
2023-05-24T07:48:36.781Z,14.04
2023-05-24T07:49:38.943Z,14.09
2023-05-24T07:50:48.385Z,14.15
2023-05-24T07:51:51.129Z,14.18
2023-05-24T07:52:52.914Z,14.21
2023-05-24T07:53:55.919Z,14.22
2023-05-24T07:54:57.765Z,14.23
2023-05-24T07:56:00.538Z,14.24
2023-05-24T07:57:02.981Z,14.24
2023-05-24T07:58:06.416Z,14.25
2023-05-24T07:59:09.600Z,14.26
2023-05-24T08:00:15.066Z,14.26
2023-05-24T08:01:18.717Z,14.28
2023-05-24T08:02:21.608Z,14.30
2023-05-24T08:03:26.549Z,14.30
2023-05-24T08:04:29.411Z,14.29
2023-05-24T08:05:31.418Z,14.24
2023-05-24T08:06:35.059Z,14.24
2023-05-24T08:07:36.923Z,14.24
2023-05-24T08:08:40.275Z,14.26
2023-05-24T08:09:43.635Z,14.28
2023-05-24T08:10:45.583Z,14.27
2023-05-24T08:11:48.491Z,14.22
2023-05-24T08:12:51.484Z,14.17
2023-05-24T08:13:54.317Z,14.16
2023-05-24T08:14:58.084Z,14.17
2023-05-24T08:16:01.092Z,14.19
2023-05-24T08:17:22.547Z,14.20
2023-05-24T08:18:25.359Z,14.21
2023-05-24T08:19:27.340Z,14.23
2023-05-24T08:20:30.244Z,14.26
2023-05-24T08:21:33.801Z,14.27
2023-05-24T08:22:37.182Z,14.24
2023-05-24T08:23:38.982Z,14.22
2023-05-24T08:24:41.765Z,14.20
2023-05-24T08:25:44.247Z,14.20
2023-05-24T08:26:47.495Z,14.26
2023-05-24T08:27:49.328Z,14.27
2023-05-24T08:28:52.561Z,14.29
2023-05-24T08:29:56.889Z,14.32
2023-05-24T08:31:01.679Z,14.33
2023-05-24T08:32:04.220Z,14.32
2023-05-24T08:33:07.322Z,14.33
2023-05-24T08:34:09.148Z,14.35
2023-05-24T08:35:21.088Z,14.39
2023-05-24T08:36:24.863Z,14.34
2023-05-24T08:37:27.096Z,14.27
2023-05-24T08:38:29.957Z,14.20
2023-05-24T08:39:31.844Z,14.14
2023-05-24T08:40:34.794Z,14.08
2023-05-24T08:41:37.703Z,14.06
2023-05-24T08:42:41.156Z,14.05
2023-05-24T08:43:44.292Z,14.08
2023-05-24T08:44:49.361Z,14.14
2023-05-24T08:45:53.273Z,14.15
2023-05-24T08:46:57.864Z,14.11
2023-05-24T08:48:01.367Z,14.09
2023-05-24T08:49:05.321Z,14.08
2023-05-24T08:50:08.396Z,14.07
2023-05-24T08:51:11.517Z,14.08
2023-05-24T08:52:13.684Z,14.11
2023-05-24T08:53:17.345Z,14.16
2023-05-24T08:54:20.182Z,14.20
2023-05-24T08:55:23.088Z,14.21
2023-05-24T08:56:32.162Z,14.21
2023-05-24T08:57:35.824Z,14.26
2023-05-24T08:58:40.570Z,14.27
2023-05-24T08:59:44.036Z,14.28
2023-05-24T09:00:48.072Z,14.30
2023-05-24T09:01:53.653Z,14.36
2023-05-24T09:02:58.651Z,14.41
2023-05-24T09:04:01.884Z,14.49
2023-05-24T09:05:05.216Z,14.53
2023-05-24T09:06:08.880Z,14.57
2023-05-24T09:07:13.002Z,14.58
2023-05-24T09:08:18.370Z,14.62
2023-05-24T09:09:22.359Z,14.65
2023-05-24T09:10:25.456Z,14.68
2023-05-24T09:11:28.663Z,14.74
2023-05-24T09:12:38.092Z,14.76
2023-05-24T09:13:41.750Z,14.78
2023-05-24T09:14:46.078Z,14.78
2023-05-24T09:15:48.921Z,14.80
2023-05-24T09:16:51.499Z,14.82
2023-05-24T09:17:54.543Z,14.84
2023-05-24T09:18:58.671Z,14.84
2023-05-24T09:20:00.776Z,14.78
2023-05-24T09:21:03.814Z,14.72
2023-05-24T09:22:05.894Z,14.70
2023-05-24T09:23:08.906Z,14.68
2023-05-24T09:24:11.418Z,14.70
2023-05-24T09:25:15.410Z,14.69
2023-05-24T09:26:18.640Z,14.68
2023-05-24T09:27:21.650Z,14.67
2023-05-24T09:28:24.949Z,14.67
2023-05-24T09:29:27.054Z,14.69
2023-05-24T09:30:29.913Z,14.69
2023-05-24T09:31:35.687Z,14.68
2023-05-24T09:32:58.869Z,14.65
2023-05-24T09:34:03.331Z,14.60
2023-05-24T09:35:09.626Z,14.57
2023-05-24T09:36:12.637Z,14.55
2023-05-24T09:37:16.853Z,14.54
2023-05-24T09:38:20.102Z,14.51
2023-05-24T09:39:22.995Z,14.43
2023-05-24T09:40:25.812Z,14.38
2023-05-24T09:41:27.930Z,14.37
2023-05-24T09:42:32.462Z,14.33
2023-05-24T09:43:36.176Z,14.29
2023-05-24T09:44:39.098Z,14.26
2023-05-24T09:45:46.667Z,14.23
2023-05-24T09:46:48.951Z,14.19
2023-05-24T09:47:53.879Z,14.18
2023-05-24T09:48:57.149Z,14.20
2023-05-24T09:50:02.177Z,14.22
2023-05-24T09:51:05.653Z,14.25
2023-05-24T09:52:08.808Z,14.28
2023-05-24T09:53:10.731Z,14.28
2023-05-24T09:54:13.701Z,14.28
2023-05-24T09:55:17.650Z,14.24
2023-05-24T09:56:20.672Z,14.20
2023-05-24T09:57:23.770Z,14.19
2023-05-24T09:58:29.951Z,14.15
2023-05-24T09:59:34.593Z,14.15
2023-05-24T10:00:40.028Z,14.13
2023-05-24T10:01:43.724Z,14.12
2023-05-24T10:02:53.313Z,14.11
2023-05-24T10:03:57.542Z,14.16
2023-05-24T10:05:00.971Z,14.20
2023-05-24T10:06:07.766Z,14.22
2023-05-24T10:07:12.176Z,14.26
2023-05-24T10:08:15.453Z,14.31
2023-05-24T10:09:18.318Z,14.31
2023-05-24T10:10:20.649Z,14.33
2023-05-24T10:11:24.148Z,14.37
2023-05-24T10:12:27.078Z,14.39
2023-05-24T10:13:30.325Z,14.36
2023-05-24T10:14:33.895Z,14.34
2023-05-24T10:15:36.877Z,14.32
2023-05-24T10:16:39.124Z,14.30
2023-05-24T10:17:42.558Z,14.34
2023-05-24T10:18:44.644Z,14.39
2023-05-24T10:19:47.573Z,14.48
2023-05-24T10:20:52.494Z,14.50
2023-05-24T10:21:58.702Z,14.53
2023-05-24T10:23:02.194Z,14.52
2023-05-24T10:24:09.059Z,14.56
2023-05-24T10:25:16.520Z,14.63
2023-05-24T10:26:21.736Z,14.66
2023-05-24T10:27:26.888Z,14.68
2023-05-24T10:28:28.712Z,14.71
2023-05-24T10:29:53.135Z,14.77
2023-05-24T10:31:02.656Z,14.90
2023-05-24T10:32:06.749Z,15.04
2023-05-24T10:33:09.522Z,15.22
2023-05-24T10:34:14.564Z,15.31
2023-05-24T10:35:18.196Z,15.35
2023-05-24T10:36:22.728Z,15.35
2023-05-24T10:37:25.083Z,15.35
2023-05-24T10:38:27.886Z,15.35
2023-05-24T10:39:29.788Z,15.35
2023-05-24T10:40:33.067Z,15.36
2023-05-24T10:41:47.357Z,15.31
2023-05-24T10:42:54.228Z,15.29
2023-05-24T10:44:19.853Z,15.25
2023-05-24T10:45:44.883Z,15.16
2023-05-24T10:47:12.045Z,15.04
2023-05-24T10:48:40.402Z,14.96
2023-05-24T10:49:48.702Z,14.91
2023-05-24T10:50:52.061Z,14.87
2023-05-24T10:52:02.201Z,14.89
2023-05-24T10:53:13.690Z,14.93
2023-05-24T10:54:18.587Z,14.96
2023-05-24T10:55:21.442Z,15.01
2023-05-24T10:56:23.753Z,15.06
2023-05-24T10:57:28.721Z,15.10
2023-05-24T10:58:46.222Z,15.10
2023-05-24T10:59:49.215Z,15.05
2023-05-24T11:00:52.187Z,15.01
2023-05-24T11:01:59.204Z,14.99
2023-05-24T11:03:03.988Z,14.98
2023-05-24T11:04:10.042Z,15.01
2023-05-24T11:05:12.899Z,15.02
2023-05-24T11:06:20.322Z,15.04
2023-05-24T11:07:24.825Z,15.04
2023-05-24T11:08:31.736Z,15.10
2023-05-24T11:09:34.977Z,15.15
2023-05-24T11:10:38.454Z,15.14
2023-05-24T11:11:40.288Z,15.19
2023-05-24T11:12:44.888Z,15.26
2023-05-24T11:13:47.725Z,15.32
2023-05-24T11:14:52.785Z,15.37
2023-05-24T11:15:54.880Z,15.41
2023-05-24T11:16:58.474Z,15.46
2023-05-24T11:18:17.339Z,15.46
2023-05-24T11:19:21.324Z,15.46
2023-05-24T11:20:23.313Z,15.45
2023-05-24T11:21:27.634Z,15.41
2023-05-24T11:22:42.827Z,15.35
2023-05-24T11:23:44.883Z,15.30
2023-05-24T11:24:48.023Z,15.26
2023-05-24T11:25:52.203Z,15.19
2023-05-24T11:26:56.973Z,15.15
2023-05-24T11:27:59.420Z,15.11
2023-05-24T11:29:05.027Z,15.14
2023-05-24T11:30:10.666Z,15.24
2023-05-24T11:31:12.511Z,15.34
2023-05-24T11:32:19.312Z,15.45
2023-05-24T11:33:22.622Z,15.52
2023-05-24T11:34:27.304Z,15.57
2023-05-24T11:35:29.859Z,15.63
2023-05-24T11:36:33.513Z,15.68
2023-05-24T11:37:45.887Z,15.76
2023-05-24T11:38:51.154Z,15.92
2023-05-24T11:39:54.236Z,16.09
2023-05-24T11:40:58.420Z,16.27
2023-05-24T11:42:01.450Z,16.50
2023-05-24T11:43:07.480Z,16.77
2023-05-24T11:44:11.633Z,17.04
2023-05-24T11:45:15.739Z,17.28
2023-05-24T11:46:19.351Z,17.42
2023-05-24T11:47:22.983Z,17.55
2023-05-24T11:48:24.957Z,17.67
2023-05-24T11:49:28.353Z,17.77
2023-05-24T11:50:45.829Z,17.87
2023-05-24T11:52:09.680Z,17.88
2023-05-24T11:53:12.110Z,17.90
2023-05-24T11:54:16.253Z,17.91
2023-05-24T11:55:24.150Z,17.93
2023-05-24T11:56:28.889Z,17.92
2023-05-24T11:57:40.017Z,17.87
2023-05-24T11:58:45.643Z,17.76
2023-05-24T11:59:49.326Z,17.70
2023-05-24T12:00:51.600Z,17.70
2023-05-24T12:02:01.462Z,17.74
2023-05-24T12:03:07.547Z,17.81
2023-05-24T12:04:11.947Z,17.92
2023-05-24T12:05:14.417Z,17.99
2023-05-24T12:06:17.233Z,18.04
2023-05-24T12:07:20.567Z,18.02
2023-05-24T12:08:23.346Z,18.02
2023-05-24T12:09:27.740Z,18.04
2023-05-24T12:10:29.597Z,18.11
2023-05-24T12:11:32.763Z,18.18
2023-05-24T12:12:45.576Z,18.25
2023-05-24T12:13:49.343Z,18.29
2023-05-24T12:14:58.551Z,18.35
2023-05-24T12:16:02.790Z,18.41
2023-05-24T12:17:06.363Z,18.40
2023-05-24T12:18:18.660Z,18.43
2023-05-24T12:19:32.920Z,18.54
2023-05-24T12:20:36.776Z,18.67
2023-05-24T12:21:41.384Z,18.75
2023-05-24T12:22:52.335Z,18.81
2023-05-24T12:23:54.162Z,18.83
2023-05-24T12:24:58.674Z,18.83
2023-05-24T12:26:01.017Z,18.77
2023-05-24T12:27:06.821Z,18.73
2023-05-24T12:28:09.811Z,18.63
2023-05-24T12:29:12.222Z,18.57
2023-05-24T12:30:20.191Z,18.49
2023-05-24T12:31:24.565Z,18.33
2023-05-24T12:32:27.398Z,18.25
2023-05-24T12:33:31.512Z,18.19
2023-05-24T12:34:34.352Z,18.15
2023-05-24T12:35:38.990Z,18.14
2023-05-24T12:36:43.082Z,18.10
2023-05-24T12:37:45.238Z,18.00
2023-05-24T12:38:48.253Z,17.90
2023-05-24T12:39:54.783Z,17.83
2023-05-24T12:42:06.157Z,17.69
2023-05-24T12:43:08.813Z,17.63
2023-05-24T12:44:12.399Z,17.53
2023-05-24T12:45:16.017Z,17.43
2023-05-24T12:46:18.863Z,17.33
2023-05-24T12:47:21.007Z,17.29
2023-05-24T12:48:24.249Z,17.29
2023-05-24T12:49:27.874Z,17.31
2023-05-24T12:50:33.465Z,17.40
2023-05-24T12:51:36.576Z,17.47
2023-05-24T12:52:39.373Z,17.52
2023-05-24T12:53:41.500Z,17.59
2023-05-24T12:54:44.327Z,17.65
2023-05-24T12:55:46.188Z,17.65
2023-05-24T12:56:51.343Z,17.64
2023-05-24T12:57:56.734Z,17.61
2023-05-24T12:59:01.701Z,17.58
2023-05-24T13:00:07.725Z,17.60
2023-05-24T13:01:10.787Z,17.61
2023-05-24T13:02:12.953Z,17.60
2023-05-24T13:03:15.906Z,17.59
2023-05-24T13:04:18.167Z,17.54
2023-05-24T13:05:22.497Z,17.52
2023-05-24T13:06:24.784Z,17.51
2023-05-24T13:07:27.581Z,17.55
2023-05-24T13:08:30.086Z,17.58
2023-05-24T13:09:34.221Z,17.53
2023-05-24T13:10:37.235Z,17.45
2023-05-24T13:11:39.058Z,17.40
2023-05-24T13:12:43.690Z,17.36
2023-05-24T13:13:46.540Z,17.33
2023-05-24T13:14:53.183Z,17.28
2023-05-24T13:15:56.079Z,17.20
2023-05-24T13:16:58.950Z,17.19
2023-05-24T13:18:02.789Z,17.18
2023-05-24T13:19:05.661Z,17.16
2023-05-24T13:20:08.508Z,17.14
2023-05-24T13:21:12.474Z,17.11
2023-05-24T13:22:14.588Z,17.13
2023-05-24T13:23:17.490Z,17.15
2023-05-24T13:24:20.259Z,17.20
2023-05-24T13:25:23.470Z,17.24
2023-05-24T13:26:25.252Z,17.28
2023-05-24T13:27:28.402Z,17.33
2023-05-24T13:28:32.579Z,17.36
2023-05-24T13:29:45.639Z,17.35
2023-05-24T13:30:55.812Z,17.26
2023-05-24T13:31:58.976Z,17.14
2023-05-24T13:33:02.144Z,17.03
2023-05-24T13:34:04.051Z,16.95
2023-05-24T13:35:10.455Z,16.91
2023-05-24T13:36:12.530Z,16.91
2023-05-24T13:37:16.253Z,16.93
2023-05-24T13:38:19.897Z,16.94
2023-05-24T13:39:22.994Z,16.90
2023-05-24T13:40:26.132Z,16.88
2023-05-24T13:41:30.495Z,16.90
2023-05-24T13:42:34.376Z,16.90
2023-05-24T13:43:39.405Z,16.86
2023-05-24T13:44:42.540Z,16.85
2023-05-24T13:45:45.597Z,16.85
2023-05-24T13:46:48.325Z,16.84
2023-05-24T13:47:51.663Z,16.84
2023-05-24T13:48:53.527Z,16.88
2023-05-24T13:49:56.826Z,16.91
2023-05-24T13:51:00.484Z,16.96
2023-05-24T13:52:02.565Z,16.98
2023-05-24T13:53:05.872Z,16.98
2023-05-24T13:54:09.867Z,16.94
2023-05-24T13:55:15.725Z,16.91
2023-05-24T13:56:17.690Z,16.88
2023-05-24T13:57:22.668Z,16.81
2023-05-24T13:58:27.862Z,16.74
2023-05-24T13:59:32.366Z,16.67
2023-05-24T14:00:35.994Z,16.59
2023-05-24T14:01:39.392Z,16.52
2023-05-24T14:02:43.200Z,16.49
2023-05-24T14:03:45.741Z,16.43
2023-05-24T14:04:48.596Z,16.39
2023-05-24T14:05:50.633Z,16.38
2023-05-24T14:06:53.518Z,16.38
2023-05-24T14:07:56.280Z,16.40
2023-05-24T14:09:01.895Z,16.40
2023-05-24T14:10:04.938Z,16.40